KVPS/VPS METAR and TAF weather

Enter ICAO airport designator
Station Type Date Time Source
KVPS METAR 2022/12/10 03:05 UTC NOAA

KVPS 100305Z 29004KT 1/4SM R02/1800V2000FT FG VV000 17/13 A3012 RMK AO2A SLP206 $


Station Type Date Time Source
KVPS Decoded METAR 2022/12/10 03:05 UTC NOAA

Valparaiso / Eglin Air Force Base, FL, United States (KVPS) 30-29N 086-31W 29M
Dec 09, 2022 - 10:05 PM EST / 2022.12.10 0305 UTC
Wind: from the WNW (290 degrees) at 5 MPH (4 KT) (direction variable):0
Visibility: 1/4 mile(s):0
Sky conditions: obscured
Weather: fog
Temperature: 62 F (17 C)
Dew Point: 55 F (13 C)
Relative Humidity: 77%
Pressure (altimeter): 30.12 in. Hg (1019 hPa)
ob: KVPS 100305Z 29004KT 1/4SM R02/1800V2000FT FG VV000 17/13 A3012 RMK AO2A SLP206
cycle: 3

Station Type Date Time Source
KVPS TAF 2022/12/10 02:27 UTC NOAA

TAF KVPS 100200Z 1002/1108 25006KT 8000 BR FEW020 QNH3008INS
BECMG 1002/1003 24006KT 4800 BR BKN010 QNH3008INS
BECMG 1003/1004 24006KT 0800 FG OVC002 QNH3009INS
TEMPO 1009/1012 0400 FG VV000
TEMPO 1012/1015 3200 BR BKN007
BECMG 1014/1015 23006KT 4800 BR BKN003 QNH3010INS
BECMG 1015/1016 22006KT 9999 NSW BKN030 QNH3011INS
BECMG 1017/1018 20006KT 9999 SCT030 QNH3011INS
BECMG 1103/1104 24008KT 9999 BKN018 QNH3013INS
BECMG 1105/1106 24006KT 9000 BR BKN010 QNH3014INS TX25/1021Z TN16/1009Z

Example: see airport list